createdAt,value
2018-03-03T00:00:24.299Z,101.90
2018-03-03T00:01:24.277Z,101.60
2018-03-03T00:02:24.270Z,96.70
2018-03-03T00:03:24.238Z,93.20
2018-03-03T00:04:24.237Z,96.40
2018-03-03T00:05:24.190Z,100.00
2018-03-03T00:06:24.176Z,98.60
2018-03-03T00:07:24.157Z,102.60
2018-03-03T00:08:24.134Z,101.20
2018-03-03T00:09:24.103Z,102.20
2018-03-03T00:10:24.104Z,100.80
2018-03-03T00:11:24.072Z,100.40
2018-03-03T00:12:24.036Z,100.30
2018-03-03T00:13:24.010Z,98.30
2018-03-03T00:14:23.994Z,104.80
2018-03-03T00:15:23.970Z,102.40
2018-03-03T00:16:23.960Z,101.30
2018-03-03T00:17:23.927Z,96.00
2018-03-03T00:18:23.903Z,100.60
2018-03-03T00:19:23.889Z,103.60
2018-03-03T00:20:23.868Z,103.60
2018-03-03T00:21:23.867Z,101.70
2018-03-03T00:22:23.812Z,101.40
2018-03-03T00:23:23.793Z,106.20
2018-03-03T00:24:23.765Z,106.00
2018-03-03T00:25:23.750Z,107.50
2018-03-03T00:26:23.726Z,103.50
2018-03-03T00:27:23.731Z,105.20
2018-03-03T00:28:23.681Z,108.60
2018-03-03T00:29:23.667Z,105.20
2018-03-03T00:30:23.639Z,102.10
2018-03-03T00:31:23.611Z,108.50
2018-03-03T00:32:23.613Z,105.00
2018-03-03T00:33:23.572Z,108.10
2018-03-03T00:34:23.548Z,99.50
2018-03-03T00:35:23.529Z,104.40
2018-03-03T00:36:23.505Z,108.50
2018-03-03T00:37:23.510Z,104.10
2018-03-03T00:38:23.474Z,105.50
2018-03-03T00:39:23.459Z,102.70
2018-03-03T00:40:23.416Z,106.60
2018-03-03T00:41:23.401Z,106.60
2018-03-03T00:42:23.405Z,107.50
2018-03-03T00:43:23.346Z,102.00
2018-03-03T00:44:23.331Z,98.80
2018-03-03T00:45:23.321Z,106.10
2018-03-03T00:46:23.285Z,103.70
2018-03-03T00:47:23.261Z,101.80
2018-03-03T00:48:23.241Z,102.60
2018-03-03T00:49:23.228Z,103.60
2018-03-03T00:50:23.190Z,105.90
2018-03-03T00:51:23.195Z,104.10
2018-03-03T00:52:23.146Z,102.40
2018-03-03T00:53:23.127Z,108.80
2018-03-03T00:54:23.107Z,106.10
2018-03-03T00:55:23.108Z,103.30
2018-03-03T00:56:23.063Z,103.90
2018-03-03T00:57:23.038Z,105.80
2018-03-03T00:58:23.018Z,107.20
2018-03-03T00:59:23.011Z,103.70
2018-03-03T01:00:22.977Z,103.40
2018-03-03T01:01:22.973Z,107.90
2018-03-03T01:02:22.947Z,100.80
2018-03-03T01:03:22.908Z,106.00
2018-03-03T01:04:22.898Z,99.90
2018-03-03T01:05:22.896Z,104.00
2018-03-03T01:06:22.851Z,99.00
2018-03-03T01:07:22.818Z,99.20
2018-03-03T01:08:22.797Z,102.10
2018-03-03T01:09:22.786Z,102.80
2018-03-03T01:10:22.761Z,102.80
2018-03-03T01:11:22.747Z,104.20
2018-03-03T01:12:22.706Z,101.20
2018-03-03T01:13:22.681Z,101.60
2018-03-03T01:14:22.663Z,101.20
2018-03-03T01:15:22.638Z,100.60
2018-03-03T01:16:22.621Z,99.30
2018-03-03T01:17:22.608Z,104.90
2018-03-03T01:18:22.590Z,103.40
2018-03-03T01:19:22.555Z,107.20
2018-03-03T01:20:22.531Z,104.10
2018-03-03T01:21:22.521Z,103.10
2018-03-03T01:22:22.506Z,102.40
2018-03-03T01:23:22.505Z,101.70
2018-03-03T01:24:22.443Z,101.30
2018-03-03T01:25:22.430Z,99.60
2018-03-03T01:26:22.398Z,99.40
2018-03-03T01:27:22.370Z,100.60
2018-03-03T01:28:22.364Z,102.50
2018-03-03T01:29:22.330Z,98.00
2018-03-03T01:30:22.322Z,100.90
2018-03-03T01:31:22.289Z,99.60
2018-03-03T01:32:22.263Z,105.80
2018-03-03T01:33:22.258Z,99.40
2018-03-03T01:34:22.212Z,101.00
2018-03-03T01:35:22.198Z,104.00
2018-03-03T01:36:22.171Z,103.00
2018-03-03T01:37:22.164Z,105.70
2018-03-03T01:38:22.158Z,102.90
2018-03-03T01:39:22.115Z,104.90
2018-03-03T01:40:22.091Z,102.80
2018-03-03T01:41:22.063Z,101.50
2018-03-03T01:42:22.042Z,102.80
2018-03-03T01:43:22.017Z,102.60
2018-03-03T01:44:22.007Z,101.80
2018-03-03T01:45:21.977Z,102.90
2018-03-03T01:46:21.950Z,99.80
2018-03-03T01:47:21.926Z,106.40
2018-03-03T01:48:21.907Z,105.70
2018-03-03T01:49:21.901Z,106.40
2018-03-03T01:50:21.866Z,101.10
2018-03-03T01:51:21.842Z,104.40
2018-03-03T01:52:21.817Z,103.10
2018-03-03T01:53:21.794Z,100.40
2018-03-03T01:54:21.776Z,101.40
2018-03-03T01:55:21.770Z,101.40
2018-03-03T01:56:21.744Z,98.20
2018-03-03T01:57:21.715Z,99.00
2018-03-03T01:58:21.689Z,100.20
2018-03-03T01:59:21.686Z,105.10
2018-03-03T02:00:21.660Z,98.10
2018-03-03T02:01:21.632Z,101.00
2018-03-03T02:02:21.596Z,101.00
2018-03-03T02:03:21.597Z,99.50
2018-03-03T02:04:21.546Z,101.30
2018-03-03T02:05:21.530Z,104.10
2018-03-03T02:06:21.544Z,104.30
2018-03-03T02:07:21.487Z,100.70
2018-03-03T02:08:21.462Z,102.40
2018-03-03T02:09:21.457Z,104.80
2018-03-03T02:10:21.424Z,101.40
2018-03-03T02:11:21.398Z,101.10
2018-03-03T02:12:21.408Z,101.80
2018-03-03T02:13:21.355Z,103.50
2018-03-03T02:14:21.337Z,101.30
2018-03-03T02:15:21.307Z,104.60
2018-03-03T02:16:21.294Z,109.90
2018-03-03T02:17:21.268Z,106.70
2018-03-03T02:18:21.256Z,109.30
2018-03-03T02:19:21.220Z,110.20
2018-03-03T02:20:21.210Z,110.20
2018-03-03T02:21:21.180Z,107.60
2018-03-03T02:22:21.179Z,111.20
2018-03-03T02:23:21.136Z,117.80
2018-03-03T02:24:21.114Z,116.50
2018-03-03T02:25:21.090Z,118.60
2018-03-03T02:26:21.080Z,112.00
2018-03-03T02:27:21.050Z,113.10
2018-03-03T02:28:21.044Z,114.60
2018-03-03T02:29:21.011Z,120.70
2018-03-03T02:30:20.984Z,117.30
2018-03-03T02:31:20.957Z,117.00
2018-03-03T02:32:20.930Z,115.10
2018-03-03T02:33:20.923Z,116.50
2018-03-03T02:34:20.895Z,118.00
2018-03-03T02:35:41.887Z,116.60
2018-03-03T02:36:20.858Z,114.60
2018-03-03T02:37:20.824Z,119.80
2018-03-03T02:38:20.800Z,109.60
2018-03-03T02:39:20.811Z,114.70
2018-03-03T02:40:20.764Z,113.60
2018-03-03T02:41:20.791Z,125.40
2018-03-03T02:42:20.714Z,118.90
2018-03-03T02:43:20.703Z,114.60
2018-03-03T02:44:20.700Z,113.10
2018-03-03T02:45:20.658Z,112.10
2018-03-03T02:46:20.631Z,117.80
2018-03-03T02:47:20.636Z,113.70
2018-03-03T02:48:20.580Z,117.90
2018-03-03T02:49:20.562Z,113.20
2018-03-03T02:50:20.543Z,114.70
2018-03-03T02:51:20.519Z,118.50
2018-03-03T02:52:20.505Z,119.70
2018-03-03T02:53:20.499Z,121.30
2018-03-03T02:54:20.479Z,122.30
2018-03-03T02:55:20.457Z,123.40
2018-03-03T02:56:20.402Z,128.00
2018-03-03T02:57:20.378Z,131.90
2018-03-03T02:58:20.372Z,129.20
2018-03-03T02:59:20.342Z,130.50
2018-03-03T03:00:41.338Z,135.80
2018-03-03T03:01:20.299Z,135.10
2018-03-03T03:02:20.266Z,138.50
2018-03-03T03:03:20.267Z,136.40
2018-03-03T03:04:20.232Z,139.10
2018-03-03T03:05:20.244Z,140.00
2018-03-03T03:06:20.193Z,133.40
2018-03-03T03:07:20.163Z,132.80
2018-03-03T03:08:20.145Z,131.80
2018-03-03T03:09:20.126Z,129.00
2018-03-03T03:10:20.111Z,125.50
2018-03-03T03:11:20.077Z,122.00
2018-03-03T03:12:20.049Z,127.80
2018-03-03T03:13:20.042Z,117.10
2018-03-03T03:14:20.019Z,116.20
2018-03-03T03:15:20.007Z,122.20
2018-03-03T03:16:19.970Z,117.20
2018-03-03T03:17:19.943Z,116.70
2018-03-03T03:18:19.920Z,116.00
2018-03-03T03:19:19.893Z,115.50
2018-03-03T03:20:19.892Z,108.70
2018-03-03T03:21:19.870Z,107.60
2018-03-03T03:22:19.848Z,107.20
2018-03-03T03:23:19.812Z,112.10
2018-03-03T03:24:19.807Z,107.70
2018-03-03T03:25:19.772Z,108.70
2018-03-03T03:26:19.742Z,107.60
2018-03-03T03:27:19.730Z,107.20
2018-03-03T03:28:19.692Z,104.60
2018-03-03T03:29:19.693Z,106.10
2018-03-03T03:30:19.659Z,106.60
2018-03-03T03:31:19.646Z,106.70
2018-03-03T03:32:19.624Z,104.50
2018-03-03T03:33:19.591Z,106.60
2018-03-03T03:34:19.578Z,107.20
2018-03-03T03:35:19.538Z,105.50
2018-03-03T03:36:19.527Z,105.70
2018-03-03T03:37:19.498Z,106.30
2018-03-03T03:38:19.487Z,105.20
2018-03-03T03:39:19.449Z,106.40
2018-03-03T03:40:19.433Z,104.60
2018-03-03T03:41:19.404Z,101.10
2018-03-03T03:42:19.386Z,102.30
2018-03-03T03:43:19.375Z,101.30
2018-03-03T03:44:19.342Z,102.00
2018-03-03T03:45:19.329Z,101.00
2018-03-03T03:46:19.291Z,100.60
2018-03-03T03:47:19.290Z,99.40
2018-03-03T03:48:19.269Z,100.80
2018-03-03T03:49:19.239Z,102.00
2018-03-03T03:50:19.227Z,102.10
2018-03-03T03:51:19.181Z,99.90
2018-03-03T03:52:19.166Z,102.40
2018-03-03T03:53:19.139Z,98.00
2018-03-03T03:54:19.116Z,100.10
2018-03-03T03:55:19.110Z,100.80
2018-03-03T03:56:19.084Z,97.70
2018-03-03T03:57:19.068Z,101.00
2018-03-03T03:58:19.025Z,102.60
2018-03-03T03:59:19.019Z,98.90
2018-03-03T04:00:18.987Z,103.10
2018-03-03T04:01:18.975Z,103.10
2018-03-03T04:02:18.941Z,101.00
2018-03-03T04:03:18.950Z,99.30
2018-03-03T04:04:18.896Z,97.40
2018-03-03T04:05:18.901Z,102.60
2018-03-03T04:06:18.850Z,96.70
2018-03-03T04:07:18.828Z,102.00
2018-03-03T04:08:18.810Z,102.60
2018-03-03T04:09:18.796Z,100.50
2018-03-03T04:10:18.784Z,100.10
2018-03-03T04:11:18.754Z,102.00
2018-03-03T04:12:18.714Z,103.90
2018-03-03T04:13:18.694Z,100.30
2018-03-03T04:14:18.669Z,100.10
2018-03-03T04:15:18.656Z,99.30
2018-03-03T04:16:18.652Z,97.80
2018-03-03T04:17:18.623Z,104.70
2018-03-03T04:18:18.580Z,98.30
2018-03-03T04:19:18.568Z,99.20
2018-03-03T04:20:18.573Z,98.00
2018-03-03T04:21:18.532Z,103.20
2018-03-03T04:22:18.507Z,102.40
2018-03-03T04:23:18.491Z,100.50
2018-03-03T04:24:18.462Z,104.20
2018-03-03T04:25:18.447Z,102.00
2018-03-03T04:26:18.409Z,100.90
2018-03-03T04:27:18.385Z,98.90
2018-03-03T04:28:18.362Z,103.00
2018-03-03T04:29:18.344Z,101.40
2018-03-03T04:30:18.328Z,100.30
2018-03-03T04:31:18.312Z,101.40
2018-03-03T04:32:18.278Z,99.90
2018-03-03T04:33:18.254Z,103.40
2018-03-03T04:34:18.237Z,101.60
2018-03-03T04:35:18.210Z,103.50
2018-03-03T04:36:18.185Z,101.50
2018-03-03T04:37:18.185Z,96.20
2018-03-03T04:38:18.140Z,98.90
2018-03-03T04:39:18.126Z,99.90
2018-03-03T04:40:18.096Z,103.40
2018-03-03T04:41:18.076Z,102.60
2018-03-03T04:42:18.052Z,102.60
2018-03-03T04:43:18.048Z,99.30
2018-03-03T04:44:18.010Z,97.60
2018-03-03T04:45:17.993Z,102.60
2018-03-03T04:46:17.968Z,101.60
2018-03-03T04:47:17.957Z,101.30
2018-03-03T04:48:17.919Z,103.10
2018-03-03T04:49:17.919Z,103.20
2018-03-03T04:50:17.880Z,98.30
2018-03-03T04:51:17.858Z,102.50
2018-03-03T04:52:17.856Z,99.80
2018-03-03T04:53:17.814Z,100.20
2018-03-03T04:54:17.803Z,93.90
2018-03-03T04:55:17.770Z,98.70
2018-03-03T04:56:17.750Z,100.10
2018-03-03T04:57:17.730Z,100.00
2018-03-03T04:58:17.715Z,94.50
2018-03-03T04:59:17.705Z,102.20
2018-03-03T05:00:17.669Z,100.30
2018-03-03T05:01:17.638Z,100.00
2018-03-03T05:02:17.615Z,95.70
2018-03-03T05:03:17.612Z,94.40
2018-03-03T05:04:17.571Z,103.00
2018-03-03T05:05:17.568Z,98.30
2018-03-03T05:06:17.529Z,101.30
2018-03-03T05:07:17.501Z,98.10
2018-03-03T05:08:17.477Z,100.20
2018-03-03T05:09:17.460Z,99.90
2018-03-03T05:10:17.433Z,101.10
2018-03-03T05:11:17.436Z,96.80
2018-03-03T05:12:17.390Z,99.40
2018-03-03T05:13:17.366Z,97.20
2018-03-03T05:14:17.357Z,102.20
2018-03-03T05:15:17.327Z,99.90
2018-03-03T05:16:17.326Z,93.50
2018-03-03T05:17:17.293Z,96.20
2018-03-03T05:18:17.269Z,96.90
2018-03-03T05:19:17.243Z,94.00
2018-03-03T05:20:17.217Z,96.90
2018-03-03T05:21:17.231Z,90.70
2018-03-03T05:22:17.176Z,94.50
2018-03-03T05:23:17.154Z,98.00
2018-03-03T05:24:17.131Z,97.10
2018-03-03T05:25:17.104Z,97.00
2018-03-03T05:26:17.080Z,92.90
2018-03-03T05:27:17.086Z,99.00
2018-03-03T05:28:17.035Z,96.40
2018-03-03T05:29:17.016Z,96.20
2018-03-03T05:30:17.018Z,95.70
2018-03-03T05:31:16.973Z,93.20
2018-03-03T05:32:16.954Z,94.70
2018-03-03T05:33:16.934Z,98.60
2018-03-03T05:34:16.930Z,97.90
2018-03-03T05:35:16.887Z,93.90
2018-03-03T05:36:16.867Z,98.80
2018-03-03T05:37:16.852Z,99.00
2018-03-03T05:38:16.836Z,95.60
2018-03-03T05:39:16.803Z,97.60
2018-03-03T05:40:16.782Z,99.50
2018-03-03T05:41:16.772Z,97.80
2018-03-03T05:42:16.733Z,101.80
2018-03-03T05:43:16.715Z,99.70
2018-03-03T05:44:16.715Z,94.50
2018-03-03T05:45:16.664Z,97.40
2018-03-03T05:46:16.664Z,95.40
2018-03-03T05:47:17.261Z,96.90
2018-03-03T05:48:16.632Z,97.60
2018-03-03T05:49:16.621Z,97.20
2018-03-03T05:50:16.564Z,96.40
2018-03-03T05:51:16.572Z,95.90
2018-03-03T05:52:18.012Z,97.50
2018-03-03T05:53:16.518Z,98.40
2018-03-03T05:54:16.519Z,95.30
2018-03-03T05:55:16.505Z,95.90
2018-03-03T05:56:16.549Z,92.90
2018-03-03T05:57:16.912Z,94.70
2018-03-03T05:58:16.392Z,94.10
2018-03-03T05:59:16.385Z,97.40
2018-03-03T06:00:16.343Z,95.20
2018-03-03T06:01:16.364Z,94.60
2018-03-03T06:02:16.334Z,93.90
2018-03-03T06:03:16.299Z,95.30
2018-03-03T06:04:16.298Z,95.50
2018-03-03T06:05:16.254Z,94.40
2018-03-03T06:06:16.250Z,98.90
2018-03-03T06:07:16.200Z,98.90
2018-03-03T06:08:16.167Z,97.10
2018-03-03T06:09:16.188Z,99.40
2018-03-03T06:10:16.133Z,96.80
2018-03-03T06:11:16.225Z,102.30
2018-03-03T06:12:16.360Z,94.50
2018-03-03T06:13:16.111Z,93.50
2018-03-03T06:14:16.081Z,95.30
2018-03-03T06:15:16.064Z,97.10
2018-03-03T06:16:16.187Z,96.40
2018-03-03T06:17:16.018Z,99.10
2018-03-03T06:18:16.028Z,97.60
2018-03-03T06:19:15.988Z,97.40
2018-03-03T06:20:15.913Z,97.30
2018-03-03T06:21:15.897Z,101.20
2018-03-03T06:22:15.999Z,98.20
2018-03-03T06:23:15.911Z,97.30
2018-03-03T06:24:15.834Z,101.60
2018-03-03T06:25:15.862Z,96.50
2018-03-03T06:26:15.798Z,100.20
2018-03-03T06:27:16.742Z,103.70
2018-03-03T06:28:36.790Z,100.10
2018-03-03T06:29:15.729Z,106.90
2018-03-03T06:30:15.859Z,103.50
2018-03-03T06:31:15.686Z,103.60
2018-03-03T06:32:15.862Z,104.30
2018-03-03T06:33:15.658Z,101.70
2018-03-03T06:34:15.642Z,100.10
2018-03-03T06:35:15.659Z,102.20
2018-03-03T06:36:15.904Z,103.30
2018-03-03T06:37:15.561Z,95.80
2018-03-03T06:38:15.550Z,102.80
2018-03-03T06:39:15.531Z,101.30
2018-03-03T06:40:15.487Z,102.50
2018-03-03T06:41:15.499Z,104.70
2018-03-03T06:42:15.433Z,109.50
2018-03-03T06:43:15.408Z,107.90
2018-03-03T06:44:15.413Z,101.30
2018-03-03T06:45:15.409Z,101.00
2018-03-03T06:46:15.386Z,103.50
2018-03-03T06:47:15.359Z,104.50
2018-03-03T06:48:15.322Z,104.20
2018-03-03T06:49:15.304Z,102.80
2018-03-03T06:50:15.299Z,102.90
2018-03-03T06:51:15.257Z,104.60
2018-03-03T06:52:15.236Z,101.30
2018-03-03T06:53:15.210Z,106.60
2018-03-03T06:54:15.211Z,105.80
2018-03-03T06:55:15.150Z,102.90
2018-03-03T06:56:15.160Z,106.10
2018-03-03T06:57:15.162Z,103.20
2018-03-03T06:58:15.111Z,101.70
2018-03-03T06:59:15.125Z,101.70
2018-03-03T07:00:15.110Z,102.30
2018-03-03T07:01:15.048Z,96.50
2018-03-03T07:02:15.001Z,97.70
2018-03-03T07:03:15.040Z,102.30
2018-03-03T07:04:14.996Z,101.10
2018-03-03T07:05:14.957Z,101.50
2018-03-03T07:06:14.926Z,101.00
2018-03-03T07:07:14.944Z,101.20
2018-03-03T07:08:14.941Z,108.80
2018-03-03T07:09:14.921Z,108.70
2018-03-03T07:10:14.827Z,105.00
2018-03-03T07:11:14.854Z,103.60
2018-03-03T07:12:14.867Z,108.10
2018-03-03T07:13:14.839Z,105.10
2018-03-03T07:14:14.812Z,109.10
2018-03-03T07:15:14.752Z,106.10
2018-03-03T07:16:14.703Z,107.40
2018-03-03T07:17:14.730Z,102.70
2018-03-03T07:18:15.315Z,103.70
2018-03-03T07:19:14.644Z,102.30
2018-03-03T07:20:14.640Z,103.80
2018-03-03T07:21:14.636Z,104.40
2018-03-03T07:22:14.577Z,102.70
2018-03-03T07:23:14.613Z,105.60
2018-03-03T07:24:14.566Z,109.60
2018-03-03T07:25:14.526Z,103.70
2018-03-03T07:26:14.559Z,103.00
2018-03-03T07:27:14.493Z,103.40
2018-03-03T07:28:14.498Z,105.70
2018-03-03T07:29:14.509Z,102.30
2018-03-03T07:30:14.462Z,105.90
2018-03-03T07:31:14.414Z,99.80
2018-03-03T07:32:14.363Z,104.40
2018-03-03T07:33:14.354Z,104.50
2018-03-03T07:34:14.351Z,102.00
2018-03-03T07:35:14.439Z,101.00
2018-03-03T07:36:14.316Z,102.00
2018-03-03T07:37:14.292Z,97.00
2018-03-03T07:38:14.260Z,99.00
2018-03-03T07:39:14.189Z,104.40
2018-03-03T07:40:14.166Z,99.80
2018-03-03T07:41:14.174Z,99.50
2018-03-03T07:42:14.120Z,97.10
2018-03-03T07:43:14.098Z,100.70
2018-03-03T07:44:14.085Z,96.30
2018-03-03T07:45:14.052Z,99.40
2018-03-03T07:46:14.041Z,97.50
2018-03-03T07:47:14.030Z,93.80
2018-03-03T07:48:13.988Z,96.20
2018-03-03T07:49:13.971Z,94.80
2018-03-03T07:50:13.946Z,98.00
2018-03-03T07:51:13.926Z,93.50
2018-03-03T07:52:13.919Z,97.10
2018-03-03T07:53:13.883Z,98.40
2018-03-03T07:54:13.856Z,93.70
2018-03-03T07:55:13.839Z,99.00
2018-03-03T07:56:13.812Z,97.50
2018-03-03T07:57:13.822Z,96.10
2018-03-03T07:58:13.792Z,97.60
2018-03-03T07:59:13.756Z,92.80
2018-03-03T08:00:13.735Z,91.80
2018-03-03T08:01:13.713Z,94.30
2018-03-03T08:02:34.700Z,87.50
2018-03-03T08:03:13.673Z,86.90
2018-03-03T08:04:13.642Z,88.40
2018-03-03T08:05:13.653Z,86.00
2018-03-03T08:06:13.607Z,85.50
2018-03-03T08:07:13.583Z,86.80
2018-03-03T08:08:13.564Z,81.70
2018-03-03T08:09:13.540Z,84.50
2018-03-03T08:10:13.538Z,82.20
2018-03-03T08:11:13.500Z,83.70
2018-03-03T08:12:13.521Z,88.80
2018-03-03T08:13:13.463Z,84.40
2018-03-03T08:14:13.436Z,80.80
2018-03-03T08:15:13.461Z,85.10
2018-03-03T08:16:13.406Z,84.30
2018-03-03T08:17:13.372Z,79.90
2018-03-03T08:18:13.372Z,81.90
2018-03-03T08:19:13.336Z,82.90
2018-03-03T08:20:13.369Z,85.10
2018-03-03T08:21:13.291Z,82.50
2018-03-03T08:22:13.268Z,78.80
2018-03-03T08:23:13.252Z,81.60
2018-03-03T08:24:13.245Z,82.20
2018-03-03T08:25:13.211Z,81.10
2018-03-03T08:26:13.224Z,81.80
2018-03-03T08:27:13.168Z,81.60
2018-03-03T08:28:13.146Z,81.50
2018-03-03T08:29:13.125Z,83.20
2018-03-03T08:30:13.116Z,84.10
2018-03-03T08:31:13.087Z,89.30
2018-03-03T08:32:13.075Z,83.80
2018-03-03T08:33:13.042Z,82.00
2018-03-03T08:34:13.026Z,83.60
2018-03-03T08:35:13.003Z,86.40
2018-03-03T08:36:12.988Z,85.80
2018-03-03T08:37:12.989Z,86.40
2018-03-03T08:38:12.945Z,86.50
2018-03-03T08:39:12.924Z,88.30
2018-03-03T08:40:12.908Z,86.00
2018-03-03T08:41:12.898Z,87.20
2018-03-03T08:42:12.853Z,84.70
2018-03-03T08:43:12.858Z,84.40
2018-03-03T08:44:12.845Z,85.50
2018-03-03T08:45:12.801Z,84.10
2018-03-03T08:46:12.784Z,86.10
2018-03-03T08:47:12.769Z,85.70
2018-03-03T08:48:12.732Z,86.30
2018-03-03T08:49:12.731Z,87.20
2018-03-03T08:50:12.688Z,88.90
2018-03-03T08:51:12.672Z,84.40
2018-03-03T08:52:12.649Z,84.90
2018-03-03T08:53:12.633Z,82.70
2018-03-03T08:54:12.619Z,85.40
2018-03-03T08:55:12.611Z,83.40
2018-03-03T08:56:12.576Z,85.20
2018-03-03T08:57:12.553Z,87.10
2018-03-03T08:58:12.534Z,82.90
2018-03-03T08:59:12.524Z,86.20
2018-03-03T09:00:33.498Z,81.40
2018-03-03T09:01:12.470Z,88.10
2018-03-03T09:02:12.449Z,87.70
2018-03-03T09:03:12.435Z,82.20
2018-03-03T09:04:12.418Z,82.50
2018-03-03T09:05:12.421Z,84.40
2018-03-03T09:06:12.369Z,87.30
2018-03-03T09:07:12.349Z,82.50
2018-03-03T09:08:12.334Z,84.00
2018-03-03T09:09:12.310Z,83.30
2018-03-03T09:10:12.317Z,83.50
2018-03-03T09:11:12.286Z,83.80
2018-03-03T09:12:12.265Z,83.50
2018-03-03T09:13:12.225Z,85.50
2018-03-03T09:14:12.209Z,86.80
2018-03-03T09:15:12.191Z,82.90
2018-03-03T09:16:12.167Z,84.10
2018-03-03T09:17:12.146Z,81.50
2018-03-03T09:18:12.150Z,83.40
2018-03-03T09:19:12.109Z,83.80
2018-03-03T09:20:12.085Z,81.80
2018-03-03T09:21:12.098Z,81.80
2018-03-03T09:22:12.049Z,82.60
2018-03-03T09:23:12.042Z,82.20
2018-03-03T09:24:12.014Z,82.50
2018-03-03T09:25:11.990Z,79.30
2018-03-03T09:27:50.960Z,86.80
2018-03-03T09:28:50.907Z,82.40
2018-03-03T09:29:50.889Z,82.90
2018-03-03T09:30:50.867Z,80.60
2018-03-03T09:31:50.841Z,80.30
2018-03-03T09:32:50.822Z,83.10
2018-03-03T09:33:50.845Z,83.70
2018-03-03T09:34:50.781Z,81.70
2018-03-03T09:35:50.764Z,84.60
2018-03-03T09:36:50.748Z,77.70
2018-03-03T09:37:50.729Z,81.10
2018-03-03T09:38:50.725Z,81.50
2018-03-03T09:39:50.695Z,80.10
2018-03-03T09:40:50.671Z,79.70
2018-03-03T09:41:50.661Z,80.30
2018-03-03T09:42:50.636Z,77.20
2018-03-03T09:43:50.627Z,80.30
2018-03-03T09:44:50.616Z,78.40
2018-03-03T09:45:50.575Z,78.10
2018-03-03T09:46:50.550Z,78.70
2018-03-03T09:47:50.536Z,79.10
2018-03-03T09:48:50.517Z,78.80
2018-03-03T09:49:50.513Z,78.00
2018-03-03T09:50:50.473Z,79.10
2018-03-03T09:51:50.502Z,80.90
2018-03-03T09:52:50.448Z,78.00
2018-03-03T09:53:50.418Z,81.60
2018-03-03T09:54:50.420Z,82.30
2018-03-03T09:55:50.445Z,83.30
2018-03-03T09:56:50.369Z,82.30
2018-03-03T09:57:50.345Z,83.20
2018-03-03T09:58:50.373Z,83.90
2018-03-03T09:59:50.313Z,84.20
2018-03-03T10:00:50.311Z,82.30
2018-03-03T10:01:52.333Z,83.10
2018-03-03T10:02:50.253Z,81.40
2018-03-03T10:03:50.241Z,84.00
2018-03-03T10:04:50.214Z,79.60
2018-03-03T10:06:11.217Z,86.10
2018-03-03T10:06:50.181Z,85.10
2018-03-03T10:07:50.172Z,82.90
2018-03-03T10:08:50.139Z,83.00
2018-03-03T10:09:50.133Z,83.10
2018-03-03T10:10:50.111Z,81.10
2018-03-03T10:11:50.106Z,84.70
2018-03-03T10:12:50.073Z,80.70
2018-03-03T10:13:50.074Z,81.40
2018-03-03T10:14:50.036Z,82.30
2018-03-03T10:15:50.015Z,84.10
2018-03-03T10:16:49.990Z,80.30
2018-03-03T10:17:49.993Z,81.30
2018-03-03T10:18:50.001Z,84.30
2018-03-03T10:19:49.939Z,83.00
2018-03-03T10:20:49.964Z,83.30
2018-03-03T10:21:49.905Z,81.60
2018-03-03T10:22:49.991Z,80.90
2018-03-03T10:23:49.871Z,81.00
2018-03-03T10:24:49.857Z,81.20
2018-03-03T10:25:49.836Z,84.40
2018-03-03T10:26:49.811Z,80.50
2018-03-03T10:27:49.815Z,82.70
2018-03-03T10:28:49.778Z,86.60
2018-03-03T10:29:49.777Z,83.40
2018-03-03T10:30:49.763Z,82.70
2018-03-03T10:31:49.726Z,83.80
2018-03-03T10:32:49.706Z,81.10
2018-03-03T10:33:49.742Z,80.20
2018-03-03T10:34:49.688Z,76.60
2018-03-03T10:35:49.688Z,80.80
2018-03-03T10:36:49.650Z,80.60
2018-03-03T10:37:49.666Z,81.80
2018-03-03T10:38:49.656Z,83.00
2018-03-03T10:39:49.607Z,83.90
2018-03-03T10:40:49.564Z,80.50
2018-03-03T10:41:49.582Z,78.60
2018-03-03T10:42:49.529Z,79.60
2018-03-03T10:43:49.528Z,86.90
2018-03-03T10:44:49.529Z,87.20
2018-03-03T10:45:49.502Z,85.80
2018-03-03T10:46:49.494Z,86.50
2018-03-03T10:47:49.452Z,89.40
2018-03-03T10:48:49.459Z,85.60
2018-03-03T10:49:49.417Z,88.80
2018-03-03T10:50:49.404Z,83.90
2018-03-03T10:51:49.378Z,84.00
2018-03-03T10:52:49.359Z,85.10
2018-03-03T10:53:49.368Z,82.00
2018-03-03T10:54:49.349Z,86.60
2018-03-03T10:55:49.310Z,86.00
2018-03-03T10:56:49.301Z,83.20
2018-03-03T10:57:49.279Z,82.30
2018-03-03T10:58:49.259Z,83.70
2018-03-03T10:59:49.265Z,82.80
2018-03-03T11:00:49.241Z,84.90
2018-03-03T11:01:49.206Z,82.80
2018-03-03T11:02:49.189Z,80.70
2018-03-03T11:03:49.174Z,80.20
2018-03-03T11:04:49.187Z,81.30
2018-03-03T11:05:49.138Z,76.50
2018-03-03T11:06:49.132Z,78.40
2018-03-03T11:07:49.123Z,79.40
2018-03-03T11:08:49.084Z,78.90
2018-03-03T11:09:49.079Z,76.00
2018-03-03T11:10:49.069Z,78.40
2018-03-03T11:11:49.053Z,79.90
2018-03-03T11:12:49.009Z,81.10
2018-03-03T11:13:48.998Z,77.70
2018-03-03T11:14:48.979Z,77.40
2018-03-03T11:15:49.019Z,78.80
2018-03-03T11:16:48.941Z,75.00
2018-03-03T11:17:48.933Z,71.10
2018-03-03T11:18:48.906Z,75.10
2018-03-03T11:19:48.886Z,74.80
2018-03-03T11:20:48.873Z,71.60
2018-03-03T11:21:48.869Z,71.70
2018-03-03T11:22:48.834Z,72.00
2018-03-03T11:23:48.816Z,73.80
2018-03-03T11:24:48.800Z,74.60
2018-03-03T11:25:48.781Z,73.80
2018-03-03T11:26:48.783Z,74.20
2018-03-03T11:27:48.767Z,74.00
2018-03-03T11:28:48.730Z,71.70
2018-03-03T11:29:48.715Z,74.50
2018-03-03T11:30:48.717Z,70.40
2018-03-03T11:31:48.678Z,69.90
2018-03-03T11:32:48.665Z,68.70
2018-03-03T11:33:48.663Z,68.40
2018-03-03T11:34:48.626Z,66.60
2018-03-03T11:35:48.605Z,66.40
2018-03-03T11:36:48.597Z,70.10
2018-03-03T11:37:48.574Z,66.00
2018-03-03T11:38:48.579Z,67.60
2018-03-03T11:39:48.542Z,67.70
2018-03-03T11:40:48.540Z,68.30
2018-03-03T11:41:48.528Z,67.80
2018-03-03T11:42:48.498Z,67.20
2018-03-03T11:43:48.503Z,65.90
2018-03-03T11:44:48.471Z,65.20
2018-03-03T11:45:48.479Z,66.90
2018-03-03T11:46:48.444Z,65.30
2018-03-03T11:47:48.430Z,69.40
2018-03-03T11:49:09.420Z,65.40
2018-03-03T11:49:48.401Z,65.40
2018-03-03T11:50:48.405Z,66.40
2018-03-03T11:51:48.378Z,61.60
2018-03-03T11:52:48.348Z,63.50
2018-03-03T11:53:48.349Z,66.50
2018-03-03T11:54:48.324Z,66.40
2018-03-03T11:55:48.308Z,66.20
2018-03-03T11:56:48.316Z,68.20
2018-03-03T11:57:48.283Z,67.50
2018-03-03T11:58:48.267Z,68.80
2018-03-03T11:59:48.265Z,67.50
2018-03-03T12:00:48.238Z,67.20
2018-03-03T12:01:48.216Z,67.10
2018-03-03T12:02:48.205Z,66.80
2018-03-03T12:03:48.211Z,66.70
2018-03-03T12:04:48.175Z,66.40
2018-03-03T12:05:48.171Z,63.90
2018-03-03T12:06:48.155Z,67.10
2018-03-03T12:07:48.131Z,65.20
2018-03-03T12:08:48.119Z,65.70
2018-03-03T12:09:48.131Z,62.80
2018-03-03T12:10:48.085Z,64.80
2018-03-03T12:11:48.076Z,64.60
2018-03-03T12:12:48.061Z,65.60
2018-03-03T12:13:48.048Z,63.10
2018-03-03T12:14:48.056Z,65.50
2018-03-03T12:15:48.023Z,65.80
2018-03-03T12:16:48.025Z,66.80
2018-03-03T12:17:47.991Z,66.50
2018-03-03T12:18:47.978Z,64.50
2018-03-03T12:19:47.963Z,66.00
2018-03-03T12:20:47.970Z,67.90
2018-03-03T12:21:47.981Z,69.20
2018-03-03T12:22:47.933Z,67.90
2018-03-03T12:23:47.917Z,68.40
2018-03-03T12:24:47.903Z,69.20
2018-03-03T12:25:47.888Z,66.80
2018-03-03T12:26:47.876Z,69.40
2018-03-03T12:27:47.877Z,65.30
2018-03-03T12:28:47.842Z,61.90
2018-03-03T12:29:47.835Z,63.40
2018-03-03T12:30:47.819Z,65.40
2018-03-03T12:31:47.805Z,65.20
2018-03-03T12:32:47.802Z,65.90
2018-03-03T12:33:47.773Z,71.00
2018-03-03T12:34:47.786Z,66.90
2018-03-03T12:35:47.751Z,63.40
2018-03-03T12:36:47.759Z,66.00
2018-03-03T12:37:47.751Z,63.20
2018-03-03T12:38:47.712Z,61.20
2018-03-03T12:39:47.707Z,64.20
2018-03-03T12:40:47.689Z,61.80
2018-03-03T12:41:47.671Z,60.90
2018-03-03T12:42:47.671Z,61.00